< < Back
Terminal Aerodrome Forecast


Current Version              Previous Versions:   1  2  3  4  5  6  7  8  9  

Terminal Aerodrome Forecast

495
FTUS42 KFFC 231100
TAFMCN
TAF
KMCN 231136Z 2312/2412 28003KT 6SM BR SKC
     FM231600 33004KT P6SM FEW250
     FM240100 00000KT P6SM BKN200=



Latest METAR

802
SAUS80 KWBC 241100
MTRMCN
METAR KMCN 241053Z AUTO 00000KT 10SM CLR 07/07 A3005 RMK AO2 SLP176
T00720072 TSNO


USA.gov is the U.S. government's official web portal to all federal, state and local government web resources and services.